»·PEaware :: N9824L KHAF-L52

N9824L :: KHAF-L52

FLIGHT INFORMATION

Flight Status: Arrived
Operator: Privately registered:
United States
More flights under this callsign
Pilot: Ryan D. (29877)
Aircraft: SOCATA TBM-900
(TBM9)
More flights by this aircraft type
Origin: KHAF Half Moon Bay
United States
Destination: L52 Oceano Co
United States
More flights between these airports :: More routes between these airports
Route: ARGGG SNS
File this flight plan on PilotEdge
Remarks:
Altitude:
(Current/Filed)
21,000ft
Speed:
(Current/Filed)
306kts
Departed: 22-Jul-20 04:07 PM
Arrived: 22-Jul-20 04:48 PM
Distance/Time
Traveled:
171nm/0:40
Distance/Time
To Go:
Arrived

Flight Plot

Page will automatically refresh every two minutes.

Flight plan parsing failed; only flown route is shown


Map Options




Map Legend


Flown Route
Filed Route
Departure Airport
Arrival Airport
Navaid (VOR, NDB)
Fix

Horizontal Profiles

Position Reports

Time Latitude Longitude Heading Altitude Ground
Speed
22-Jul-20 15:50 37.513664 -122.495583 308 55ft 0kts
22-Jul-20 15:51 37.513664 -122.495583 308 55ft 0kts
22-Jul-20 15:52 37.513664 -122.495583 308 55ft 0kts
22-Jul-20 15:53 37.513664 -122.495583 308 55ft 0kts
22-Jul-20 15:54 37.513664 -122.495583 308 55ft 0kts
22-Jul-20 15:55 37.513664 -122.495583 308 55ft 0kts
22-Jul-20 15:56 37.513664 -122.495583 308 55ft 0kts
22-Jul-20 15:57 37.513664 -122.495583 308 55ft 0kts
22-Jul-20 15:59 37.513664 -122.495583 308 55ft 0kts
22-Jul-20 16:00 37.513664 -122.495583 308 55ft 0kts
22-Jul-20 16:01 37.514104 -122.497126 303 53ft 6kts
22-Jul-20 16:02 37.515330 -122.499387 305 50ft 8kts
22-Jul-20 16:03 37.516741 -122.502012 304 53ft 12kts
22-Jul-20 16:04 37.518995 -122.505079 317 69ft 9kts
22-Jul-20 16:05 37.518832 -122.506426 224 69ft 0kts
22-Jul-20 16:06 37.518061 -122.506628 137 67ft 15kts
22-Jul-20 16:07 37.498133 -122.480422 132 1558ft 134kts
22-Jul-20 16:08 37.478932 -122.437275 128 3857ft 151kts
22-Jul-20 16:09 37.449976 -122.399013 141 6190ft 157kts
22-Jul-20 16:10 37.416618 -122.364418 141 8838ft 158kts
22-Jul-20 16:11 37.380263 -122.327184 141 10656ft 197kts
22-Jul-20 16:12 37.334771 -122.280646 141 12161ft 217kts
22-Jul-20 16:12 37.295443 -122.240461 141 13484ft 223kts
22-Jul-20 16:14 37.238278 -122.182202 141 15412ft 230kts
22-Jul-20 16:15 37.187621 -122.130673 141 17098ft 238kts
22-Jul-20 16:15 37.144224 -122.086602 142 18507ft 244kts
22-Jul-20 16:16 37.087454 -122.029060 142 18934ft 284kts
22-Jul-20 16:17 37.024115 -121.964928 142 18944ft 296kts
22-Jul-20 16:19 36.948910 -121.889075 142 18962ft 297kts
22-Jul-20 16:19 36.895147 -121.834949 143 18971ft 298kts
22-Jul-20 16:20 36.834301 -121.773789 143 20515ft 262kts
22-Jul-20 16:21 36.775011 -121.714375 143 20973ft 290kts
22-Jul-20 16:22 36.710358 -121.649650 143 20966ft 303kts
22-Jul-20 16:23 36.641612 -121.588805 155 20968ft 303kts
22-Jul-20 16:24 36.566479 -121.540746 155 20963ft 304kts
22-Jul-20 16:25 36.491075 -121.492545 155 20961ft 305kts
22-Jul-20 16:26 36.415864 -121.444535 155 20959ft 305kts
22-Jul-20 16:27 36.340342 -121.396466 155 20950ft 305kts
22-Jul-20 16:28 36.265139 -121.348692 156 20945ft 303kts
22-Jul-20 16:29 36.190147 -121.301151 156 20936ft 302kts
22-Jul-20 16:30 36.115138 -121.253705 156 20926ft 302kts
22-Jul-20 16:31 36.040445 -121.206557 156 20922ft 301kts
22-Jul-20 16:32 35.966002 -121.159644 157 20918ft 301kts
22-Jul-20 16:33 35.890119 -121.111993 156 20135ft 319kts
22-Jul-20 16:34 35.809571 -121.061470 156 18363ft 329kts
22-Jul-20 16:35 35.728740 -121.010890 156 16560ft 323kts
22-Jul-20 16:36 35.649692 -120.961552 156 14754ft 315kts
22-Jul-20 16:37 35.572412 -120.913412 155 12950ft 309kts
22-Jul-20 16:38 35.496413 -120.866191 155 11083ft 302kts
22-Jul-20 16:39 35.422265 -120.820223 154 8868ft 296kts
22-Jul-20 16:40 35.349883 -120.775386 154 6927ft 289kts
22-Jul-20 16:41 35.278918 -120.731546 154 5301ft 283kts
22-Jul-20 16:42 35.209109 -120.688538 155 3669ft 281kts
22-Jul-20 16:43 35.144710 -120.650781 154 2585ft 216kts
22-Jul-20 16:44 35.096648 -120.622892 165 1421ft 149kts
22-Jul-20 16:45 35.077333 -120.596242 48 605ft 103kts
22-Jul-20 16:46 35.094901 -120.609805 300 262ft 81kts
22-Jul-20 16:47 35.103019 -120.625140 302 17ft 11kts
22-Jul-20 16:48 35.103496 -120.624585 167 17ft 4kts
22-Jul-20 16:49 35.103328 -120.624462 34 17ft 0kts
22-Jul-20 16:50 35.103328 -120.624462 34 17ft 0kts

Navigation Log

Ident Type
Flight plan parsing failed, navigation log unavailable